Time;durP1;ratioP1;P1;durP2;ratioP2;P2;SDS_P1;SDS_P2;PMS_P1;PMS_P2;Temp;Humidity;BMP_temperature;BMP_pressure;BME280_temperature;BME280_humidity;BME280_pressure;Samples;Min_cycle;Max_cycle;Signal;HPM_P1;HPM_P2
2023/09/25 00:01:04;;;;;;;2.67;2.47;;;15.00;42.70;;;;;;20398;6870;306577;31
2023/09/25 00:03:29;;;;;;;2.87;2.67;;;15.10;42.80;;;;;;20398;6870;284308;31
2023/09/25 00:05:54;;;;;;;2.50;2.30;;;15.30;42.30;;;;;;20581;6870;122499;31
2023/09/25 00:08:20;;;;;;;2.43;2.23;;;15.20;42.30;;;;;;20398;6870;312466;31
2023/09/25 00:10:45;;;;;;;2.23;2.13;;;15.30;42.50;;;;;;20603;6870;118429;31
2023/09/25 00:13:11;;;;;;;2.37;2.27;;;15.20;42.20;;;;;;20417;6870;278715;31
2023/09/25 00:15:43;;;;;;;2.60;2.40;;;15.30;42.00;;;;;;20413;6870;308445;31
2023/09/25 00:18:08;;;;;;;3.90;2.20;;;15.50;41.70;;;;;;20616;6870;118227;31
2023/09/25 00:20:34;;;;;;;2.20;2.10;;;15.40;41.70;;;;;;20615;6870;117153;31
2023/09/25 00:22:59;;;;;;;2.30;2.10;;;15.00;42.00;;;;;;20623;6870;121357;31
2023/09/25 00:25:28;;;;;;;1.83;1.67;;;14.80;42.30;;;;;;20626;6870;117275;31
2023/09/25 00:27:51;;;;;;;2.80;2.50;;;14.60;42.60;;;;;;20407;6868;308531;31
2023/09/25 00:30:16;;;;;;;1.83;1.70;;;14.80;42.60;;;;;;20626;6869;117107;31
2023/09/25 00:32:41;;;;;;;1.90;1.80;;;14.80;42.40;;;;;;20609;6870;116858;31
2023/09/25 00:35:09;;;;;;;2.10;2.00;;;14.70;42.50;;;;;;20413;6870;304350;31
2023/09/25 00:37:34;;;;;;;2.47;2.10;;;14.80;42.50;;;;;;20624;6870;117048;31
2023/09/25 00:40:07;;;;;;;2.50;2.30;;;14.80;42.30;;;;;;20410;6870;308487;31
2023/09/25 00:42:26;;;;;;;2.30;2.20;;;15.00;42.50;;;;;;20371;6870;307850;31
2023/09/25 00:44:51;;;;;;;2.50;2.30;;;15.30;42.10;;;;;;20413;6870;296225;31
2023/09/25 00:47:17;;;;;;;2.23;2.13;;;15.50;41.50;;;;;;20414;6870;343928;31
2023/09/25 00:49:42;;;;;;;2.50;2.30;;;15.70;41.10;;;;;;20395;6870;307987;31
2023/09/25 00:52:08;;;;;;;1.95;1.85;;;15.80;40.80;;;;;;20610;6870;120417;31
2023/09/25 00:54:33;;;;;;;3.80;2.10;;;15.60;40.90;;;;;;20583;6870;118635;31
2023/09/25 00:56:59;;;;;;;2.13;1.90;;;15.30;41.30;;;;;;20626;6870;121187;31
2023/09/25 00:59:24;;;;;;;2.00;1.90;;;14.90;41.70;;;;;;20621;6870;118138;31
2023/09/25 01:01:50;;;;;;;2.77;1.90;;;14.70;42.20;;;;;;20611;6870;117767;31
2023/09/25 01:04:16;;;;;;;1.90;1.80;;;14.40;42.20;;;;;;20629;6870;117187;31
2023/09/25 01:06:43;;;;;;;2.30;2.20;;;14.30;42.60;;;;;;20393;6870;334519;31
2023/09/25 01:09:09;;;;;;;1.80;1.70;;;14.50;42.80;;;;;;20608;6870;116981;31
2023/09/25 01:11:34;;;;;;;2.57;2.30;;;14.60;42.70;;;;;;20398;6870;279309;31
2023/09/25 01:13:59;;;;;;;2.65;2.40;;;14.70;42.70;;;;;;20421;6870;311720;31
2023/09/25 01:16:26;;;;;;;2.30;1.80;;;15.00;42.20;;;;;;20606;6870;118328;31
2023/09/25 01:18:50;;;;;;;2.37;2.00;;;15.00;42.10;;;;;;20413;6870;278973;31
2023/09/25 01:21:16;;;;;;;2.42;2.22;;;15.00;42.10;;;;;;20400;6870;279152;31
2023/09/25 01:23:41;;;;;;;3.10;2.53;;;15.30;42.00;;;;;;20407;6870;338144;31
2023/09/25 01:26:07;;;;;;;2.13;1.93;;;15.50;41.50;;;;;;20619;6870;120088;31
2023/09/25 01:28:33;;;;;;;2.20;2.00;;;15.30;41.50;;;;;;20609;6870;118717;31
2023/09/25 01:30:58;;;;;;;2.33;1.97;;;15.00;41.80;;;;;;20622;6870;117192;31
2023/09/25 01:33:26;;;;;;;1.87;1.77;;;14.70;42.10;;;;;;20628;6870;123917;31
2023/09/25 01:35:50;;;;;;;2.40;1.57;;;14.50;42.40;;;;;;20621;6870;123497;31
2023/09/25 01:38:16;;;;;;;2.35;2.20;;;14.30;42.60;;;;;;20417;6870;308007;31
2023/09/25 01:40:41;;;;;;;2.63;2.10;;;14.50;43.00;;;;;;20613;6868;118198;31
2023/09/25 01:43:07;;;;;;;2.42;2.20;;;14.50;42.70;;;;;;20416;6870;337810;31
2023/09/25 01:45:33;;;;;;;1.97;1.87;;;14.70;43.20;;;;;;20623;6870;117576;31
2023/09/25 01:47:58;;;;;;;2.47;2.28;;;14.70;42.90;;;;;;20412;6870;339936;31
2023/09/25 01:50:24;;;;;;;1.93;1.83;;;14.90;42.70;;;;;;20612;6870;118185;31
2023/09/25 01:52:49;;;;;;;2.80;1.70;;;14.80;42.50;;;;;;20622;6870;118815;31
2023/09/25 01:55:15;;;;;;;2.20;2.10;;;14.60;42.70;;;;;;20420;6870;309375;31
2023/09/25 01:57:40;;;;;;;1.80;1.70;;;14.70;42.80;;;;;;20639;6870;116981;31
2023/09/25 02:00:10;;;;;;;2.10;2.00;;;14.70;42.60;;;;;;20618;6870;119110;31
2023/09/25 02:02:33;;;;;;;2.47;2.27;;;14.50;42.80;;;;;;20387;6870;280893;31
2023/09/25 02:04:59;;;;;;;2.70;2.50;;;14.70;43.20;;;;;;20413;6870;308090;31
2023/09/25 02:07:24;;;;;;;2.20;1.98;;;14.90;42.60;;;;;;20624;6870;117596;31
2023/09/25 02:09:50;;;;;;;2.57;2.30;;;14.80;42.40;;;;;;20419;6870;278925;31
2023/09/25 02:12:15;;;;;;;2.10;2.00;;;14.90;42.40;;;;;;20622;6870;118274;31
2023/09/25 02:14:41;;;;;;;2.45;2.25;;;14.80;42.40;;;;;;20397;6870;279666;31
2023/09/25 02:17:06;;;;;;;2.37;2.20;;;14.90;42.50;;;;;;20412;6870;308409;31
2023/09/25 02:19:32;;;;;;;2.50;2.30;;;15.10;42.20;;;;;;20417;6870;313419;31
2023/09/25 02:21:58;;;;;;;2.63;2.13;;;15.30;41.80;;;;;;20631;6870;117073;31
2023/09/25 02:24:23;;;;;;;2.33;2.12;;;15.10;41.80;;;;;;20396;6870;320385;31
2023/09/25 02:26:49;;;;;;;2.55;2.35;;;15.10;41.80;;;;;;20419;6870;287074;31
2023/09/25 02:29:14;;;;;;;2.12;2.00;;;15.30;41.60;;;;;;20411;6870;341835;31
2023/09/25 02:31:40;;;;;;;2.20;2.10;;;15.50;41.50;;;;;;20411;6870;338400;31
2023/09/25 02:34:06;;;;;;;1.90;1.80;;;15.60;41.20;;;;;;20627;6870;117126;31
2023/09/25 02:36:31;;;;;;;2.20;2.10;;;15.30;41.40;;;;;;20392;6870;309272;31
2023/09/25 02:38:57;;;;;;;2.07;1.97;;;15.30;41.50;;;;;;20624;6870;117299;31
2023/09/25 02:41:22;;;;;;;2.53;2.33;;;15.10;41.60;;;;;;20416;6870;279440;31
2023/09/25 02:43:48;;;;;;;2.70;2.13;;;15.10;41.80;;;;;;20404;6870;312003;31
2023/09/25 02:46:13;;;;;;;2.23;2.03;;;15.30;41.70;;;;;;20419;6870;279045;31
2023/09/25 02:48:39;;;;;;;2.60;2.40;;;15.50;41.60;;;;;;20397;6870;283396;31
2023/09/25 02:51:05;;;;;;;2.80;2.60;;;15.60;41.40;;;;;;20420;6869;278436;31
2023/09/25 02:53:30;;;;;;;2.70;2.50;;;15.70;41.00;;;;;;20420;6869;279818;31
2023/09/25 02:55:56;;;;;;;2.30;1.77;;;15.70;40.80;;;;;;20635;6870;117031;31
2023/09/25 02:58:21;;;;;;;1.90;1.80;;;15.40;41.10;;;;;;20627;6870;117044;31
2023/09/25 03:00:47;;;;;;;2.75;2.17;;;15.00;41.70;;;;;;20605;6870;119123;31
2023/09/25 03:03:14;;;;;;;2.20;2.00;;;14.60;42.20;;;;;;20628;6870;120930;31
2023/09/25 03:05:38;;;;;;;2.20;2.10;;;14.40;42.70;;;;;;20628;6870;123298;31
2023/09/25 03:08:03;;;;;;;2.20;2.10;;;14.10;43.00;;;;;;20424;6870;310158;31
2023/09/25 03:10:29;;;;;;;2.35;2.20;;;14.30;43.80;;;;;;20400;6870;310098;31
2023/09/25 03:12:54;;;;;;;2.70;2.50;;;14.60;43.40;;;;;;20414;6870;278669;31
2023/09/25 03:15:20;;;;;;;2.63;2.30;;;14.90;43.20;;;;;;20627;6870;117091;31
2023/09/25 03:17:46;;;;;;;2.25;2.05;;;14.70;43.10;;;;;;20629;6870;117171;31
2023/09/25 03:20:15;;;;;;;2.60;2.40;;;14.40;43.40;;;;;;20418;6870;342450;31
2023/09/25 03:22:41;;;;;;;2.50;2.30;;;14.50;43.40;;;;;;20606;6870;117114;31
2023/09/25 03:25:07;;;;;;;2.23;2.13;;;14.30;43.30;;;;;;20618;6870;117324;31
2023/09/25 03:27:32;;;;;;;2.40;2.30;;;14.10;43.70;;;;;;20620;6870;116992;31
2023/09/25 03:29:58;;;;;;;2.50;2.40;;;13.80;43.90;;;;;;20416;6870;299870;31
2023/09/25 03:32:23;;;;;;;2.50;2.40;;;14.00;44.20;;;;;;20394;6870;306141;31
2023/09/25 03:34:49;;;;;;;2.10;2.00;;;14.30;43.60;;;;;;20625;6870;118402;31
2023/09/25 03:37:14;;;;;;;2.13;1.90;;;14.20;43.50;;;;;;20626;6870;117516;31
2023/09/25 03:39:40;;;;;;;2.13;2.03;;;13.90;43.70;;;;;;20627;6870;117437;31
2023/09/25 03:42:05;;;;;;;2.00;1.90;;;13.70;44.20;;;;;;20621;6870;118224;31
2023/09/25 03:44:31;;;;;;;2.80;2.53;;;13.50;44.50;;;;;;20396;6870;278291;31
2023/09/25 03:46:57;;;;;;;2.23;2.13;;;13.70;45.30;;;;;;20412;6870;308249;31
2023/09/25 03:49:22;;;;;;;2.80;2.50;;;14.00;44.80;;;;;;20418;6870;308378;31
2023/09/25 03:51:48;;;;;;;2.10;2.00;;;14.40;44.30;;;;;;20627;6870;117949;31
2023/09/25 03:54:13;;;;;;;2.40;2.20;;;14.20;44.10;;;;;;20628;6870;123084;31
2023/09/25 03:56:39;;;;;;;2.30;2.20;;;13.90;44.50;;;;;;20613;6870;118090;31
2023/09/25 03:59:05;;;;;;;2.10;1.90;;;13.60;45.50;;;;;;20595;6870;118812;31
2023/09/25 04:01:30;;;;;;;3.53;2.28;;;13.40;45.10;;;;;;20599;6870;119993;31
2023/09/25 04:03:55;;;;;;;2.27;2.17;;;13.20;45.30;;;;;;20627;6868;118031;31
2023/09/25 04:06:21;;;;;;;2.87;2.67;;;13.00;45.40;;;;;;20406;6870;308632;31
2023/09/25 04:08:48;;;;;;;2.70;2.50;;;13.30;45.80;;;;;;20378;6870;313168;31
2023/09/25 04:11:14;;;;;;;2.58;2.37;;;13.70;45.40;;;;;;20409;6870;341953;31
2023/09/25 04:13:40;;;;;;;4.50;2.70;;;14.00;44.50;;;;;;20409;6870;324123;31
2023/09/25 04:16:06;;;;;;;2.43;2.23;;;14.30;44.10;;;;;;20631;6870;117179;31
2023/09/25 04:18:31;;;;;;;1.70;1.60;;;14.20;44.20;;;;;;20609;6870;119192;31
2023/09/25 04:20:57;;;;;;;2.20;2.10;;;13.80;44.50;;;;;;20630;6870;117624;31
2023/09/25 04:23:22;;;;;;;2.60;2.40;;;13.60;44.90;;;;;;20411;6870;278756;31
2023/09/25 04:25:52;;;;;;;3.70;3.50;;;13.70;44.70;;;;;;20410;6870;308866;31
2023/09/25 04:28:18;;;;;;;3.20;3.00;;;14.00;44.50;;;;;;20634;6870;117995;31
2023/09/25 04:30:43;;;;;;;3.30;3.10;;;13.90;44.40;;;;;;20405;6870;308283;31
2023/09/25 04:33:09;;;;;;;2.67;2.47;;;14.00;44.50;;;;;;20631;6870;117833;31
2023/09/25 04:35:34;;;;;;;2.23;2.03;;;13.80;44.50;;;;;;20633;6870;121177;31
2023/09/25 04:38:00;;;;;;;3.10;2.67;;;13.60;45.60;;;;;;20419;6870;313873;31
2023/09/25 04:40:30;;;;;;;2.83;2.62;;;13.60;45.20;;;;;;20393;6870;308975;31
2023/09/25 04:42:51;;;;;;;2.67;2.27;;;13.80;45.00;;;;;;20612;6870;117362;31
2023/09/25 04:45:18;;;;;;;2.30;2.10;;;13.70;45.00;;;;;;20632;6870;117116;31
2023/09/25 04:47:42;;;;;;;2.20;2.00;;;13.40;46.00;;;;;;20615;6870;119384;31
2023/09/25 04:50:11;;;;;;;2.83;2.50;;;13.10;45.60;;;;;;20415;6870;337605;31
2023/09/25 04:52:40;;;;;;;3.27;2.50;;;13.30;45.80;;;;;;20398;6870;308497;31
2023/09/25 04:55:10;;;;;;;2.57;2.37;;;13.60;45.50;;;;;;20410;6870;291183;31
2023/09/25 04:57:34;;;;;;;2.70;2.50;;;13.80;45.30;;;;;;20413;6870;291778;31
2023/09/25 05:00:21;;;;;;;3.13;2.47;;;14.00;45.10;;;;;;20417;6870;279168;31
2023/09/25 05:02:43;;;;;;;2.70;2.50;;;14.10;44.60;;;;;;20387;6870;327082;31
2023/09/25 05:05:09;;;;;;;2.50;2.30;;;14.20;44.20;;;;;;20408;6870;289988;31
2023/09/25 05:07:35;;;;;;;3.33;2.47;;;14.20;44.20;;;;;;20404;6870;279860;31
2023/09/25 05:10:01;;;;;;;2.03;1.83;;;14.20;44.20;;;;;;20631;6870;117309;31
2023/09/25 05:12:29;;;;;;;1.93;1.80;;;13.80;44.40;;;;;;20604;6870;118265;31
2023/09/25 05:14:55;;;;;;;2.60;2.40;;;13.40;45.10;;;;;;20413;6869;278650;31
2023/09/25 05:17:21;;;;;;;2.00;1.90;;;13.30;45.30;;;;;;20622;6870;124237;31
2023/09/25 05:19:46;;;;;;;2.50;2.40;;;13.10;45.40;;;;;;20415;6870;338156;31
2023/09/25 05:22:12;;;;;;;2.47;1.83;;;13.10;45.50;;;;;;20629;6870;123299;31
2023/09/25 05:24:37;;;;;;;2.58;2.28;;;12.90;45.60;;;;;;20397;6870;337739;31
2023/09/25 05:27:06;;;;;;;2.13;1.97;;;12.90;45.90;;;;;;20639;6870;117696;31
2023/09/25 05:29:31;;;;;;;2.43;2.23;;;12.70;45.90;;;;;;20422;6870;278228;31
2023/09/25 05:31:57;;;;;;;2.50;2.30;;;12.70;46.20;;;;;;20424;6870;281020;31
2023/09/25 05:34:23;;;;;;;2.47;2.37;;;12.90;45.70;;;;;;20422;6870;279797;31
2023/09/25 05:36:48;;;;;;;2.42;2.33;;;13.10;45.90;;;;;;20260;6870;337150;31
2023/09/25 05:39:15;;;;;;;2.23;2.03;;;13.30;45.50;;;;;;20636;6870;117674;31
2023/09/25 05:41:39;;;;;;;2.47;2.23;;;13.00;45.70;;;;;;20421;6870;279902;31
2023/09/25 05:44:05;;;;;;;2.60;2.40;;;13.10;46.10;;;;;;20418;6870;307385;31
2023/09/25 05:46:30;;;;;;;2.33;2.23;;;13.40;45.50;;;;;;20402;6870;304212;31
2023/09/25 05:48:58;;;;;;;2.73;1.90;;;13.70;45.30;;;;;;20626;6870;117224;31
2023/09/25 05:51:22;;;;;;;2.25;2.00;;;13.70;45.70;;;;;;20628;6870;117562;31
2023/09/25 05:53:47;;;;;;;2.57;2.37;;;13.50;45.80;;;;;;20415;6870;278659;31
2023/09/25 05:56:13;;;;;;;2.57;2.37;;;13.60;45.90;;;;;;20418;6870;308930;31
2023/09/25 05:58:38;;;;;;;2.07;1.97;;;13.90;45.90;;;;;;20611;6870;118754;31
2023/09/25 06:01:05;;;;;;;2.50;2.40;;;13.90;45.80;;;;;;20416;6870;312371;31
2023/09/25 06:03:31;;;;;;;2.27;2.17;;;14.00;45.30;;;;;;20631;6870;123224;31
2023/09/25 06:05:55;;;;;;;3.10;2.40;;;14.00;45.40;;;;;;20410;6870;342516;31
2023/09/25 06:08:20;;;;;;;2.60;2.40;;;14.20;45.60;;;;;;20423;6870;278242;31
2023/09/25 06:10:47;;;;;;;2.50;2.40;;;14.50;45.20;;;;;;20398;6870;308015;31
2023/09/25 06:13:12;;;;;;;2.17;1.80;;;14.90;44.90;;;;;;20629;6870;117483;31
2023/09/25 06:15:37;;;;;;;2.62;2.50;;;14.80;44.80;;;;;;20414;6870;343256;31
2023/09/25 06:18:09;;;;;;;3.43;2.30;;;14.80;44.70;;;;;;20594;6870;118601;31
2023/09/25 06:20:30;;;;;;;1.83;1.73;;;14.80;44.90;;;;;;20597;6870;117704;31
2023/09/25 06:22:55;;;;;;;3.45;2.55;;;14.60;45.40;;;;;;20415;6870;308604;31
2023/09/25 06:25:21;;;;;;;2.53;2.40;;;14.80;44.50;;;;;;20418;6868;279176;31
2023/09/25 06:27:46;;;;;;;2.63;2.47;;;15.10;44.00;;;;;;20422;6869;295471;31
2023/09/25 06:30:12;;;;;;;2.67;2.40;;;15.40;43.50;;;;;;20419;6870;295436;31
2023/09/25 06:32:38;;;;;;;1.93;1.83;;;15.70;43.10;;;;;;20611;6870;117786;31
2023/09/25 06:35:04;;;;;;;2.70;2.50;;;15.50;43.30;;;;;;20399;6870;278408;31
2023/09/25 06:37:30;;;;;;;3.53;2.50;;;15.60;43.40;;;;;;20412;6870;314001;31
2023/09/25 06:39:55;;;;;;;2.43;2.20;;;15.80;43.20;;;;;;20629;6870;117390;31
2023/09/25 06:42:20;;;;;;;2.30;2.10;;;15.70;43.30;;;;;;20613;6870;121822;31
2023/09/25 06:44:46;;;;;;;1.90;1.80;;;15.50;43.80;;;;;;20611;6870;117171;31
2023/09/25 06:47:11;;;;;;;2.35;2.25;;;15.30;44.20;;;;;;20420;6870;332276;31
2023/09/25 06:49:37;;;;;;;2.78;2.45;;;15.50;43.80;;;;;;20427;6870;308002;31
2023/09/25 06:52:02;;;;;;;2.50;2.30;;;15.90;43.70;;;;;;20427;6870;311087;31
2023/09/25 06:54:28;;;;;;;2.50;2.30;;;16.20;43.10;;;;;;20407;6870;278031;31
2023/09/25 06:56:54;;;;;;;2.70;2.50;;;16.50;42.70;;;;;;20422;6870;308265;31
2023/09/25 06:59:19;;;;;;;2.80;2.50;;;16.80;42.60;;;;;;20627;6870;117105;31
2023/09/25 07:01:45;;;;;;;2.23;2.13;;;16.60;42.80;;;;;;20627;6870;117055;31
2023/09/25 07:04:10;;;;;;;2.03;1.93;;;16.30;43.30;;;;;;20632;6870;117556;31
2023/09/25 07:06:36;;;;;;;2.50;2.10;;;16.20;43.90;;;;;;20617;6870;117604;31
2023/09/25 07:09:02;;;;;;;2.40;2.20;;;16.10;44.20;;;;;;20424;6870;309244;31
2023/09/25 07:11:28;;;;;;;2.80;2.50;;;16.30;44.00;;;;;;20625;6870;117501;31
2023/09/25 07:13:53;;;;;;;2.00;1.90;;;16.50;44.00;;;;;;20632;6870;116260;31
2023/09/25 07:16:19;;;;;;;2.10;1.80;;;16.40;43.90;;;;;;20633;6870;119701;31
2023/09/25 07:18:46;;;;;;;2.30;2.20;;;16.40;44.10;;;;;;20614;6870;118272;31
2023/09/25 07:21:10;;;;;;;3.63;2.13;;;16.40;44.10;;;;;;20668;6870;117011;31
2023/09/25 07:23:36;;;;;;;4.07;2.23;;;16.50;44.10;;;;;;20626;6870;123079;31
2023/09/25 07:26:05;;;;;;;2.60;2.40;;;16.50;44.00;;;;;;20422;6870;278413;31
2023/09/25 07:28:31;;;;;;;3.00;2.70;;;16.90;43.60;;;;;;20396;6870;326389;31
2023/09/25 07:30:58;;;;;;;2.73;2.40;;;17.40;42.60;;;;;;20616;6870;117193;31
2023/09/25 07:33:22;;;;;;;3.53;2.33;;;17.60;42.60;;;;;;20418;6870;337366;31
2023/09/25 07:35:48;;;;;;;2.75;2.50;;;17.90;42.20;;;;;;20419;6870;315898;31
2023/09/25 07:38:14;;;;;;;3.12;2.83;;;18.30;42.00;;;;;;20428;6868;338022;31
2023/09/25 07:40:40;;;;;;;3.57;2.43;;;18.60;41.00;;;;;;20618;6870;118977;31
2023/09/25 07:43:07;;;;;;;2.67;2.47;;;18.70;41.40;;;;;;20428;6870;308365;31
2023/09/25 07:45:32;;;;;;;1.90;1.80;;;18.90;40.70;;;;;;20633;6870;116968;31
2023/09/25 07:47:57;;;;;;;3.87;2.40;;;19.00;40.90;;;;;;20630;6870;118703;31
2023/09/25 07:50:24;;;;;;;4.30;2.67;;;18.90;41.20;;;;;;20421;6870;312404;31
2023/09/25 07:52:48;;;;;;;2.90;2.70;;;19.20;40.20;;;;;;20397;6870;308573;31
2023/09/25 07:55:13;;;;;;;2.08;1.98;;;19.50;39.50;;;;;;20636;6870;117140;31
2023/09/25 07:57:45;;;;;;;2.33;2.00;;;19.70;39.90;;;;;;20635;6870;119705;31
2023/09/25 08:00:22;;;;;;;2.50;2.30;;;19.60;40.10;;;;;;20603;6870;118562;31
2023/09/25 08:02:47;;;;;;;3.40;2.70;;;19.60;40.50;;;;;;20387;6870;308797;31
2023/09/25 08:05:08;;;;;;;2.70;2.43;;;19.90;39.90;;;;;;20622;6870;119095;31
2023/09/25 08:07:34;;;;;;;2.20;2.10;;;20.00;39.90;;;;;;20649;6870;117560;31
2023/09/25 08:10:00;;;;;;;2.70;2.50;;;20.00;40.20;;;;;;20646;6870;116876;31
2023/09/25 08:12:25;;;;;;;2.40;2.30;;;20.00;40.50;;;;;;20621;6870;118768;31
2023/09/25 08:14:51;;;;;;;3.07;2.70;;;19.90;40.90;;;;;;20432;6870;282191;31
2023/09/25 08:17:17;;;;;;;2.30;2.10;;;20.30;39.90;;;;;;20636;6870;123013;31
2023/09/25 08:19:43;;;;;;;3.50;2.60;;;20.50;39.90;;;;;;20430;6870;339695;31
2023/09/25 08:22:10;;;;;;;3.45;2.67;;;20.80;40.10;;;;;;20427;6870;307854;31
2023/09/25 08:24:34;;;;;;;3.13;2.27;;;21.20;39.80;;;;;;20615;6870;122934;31
2023/09/25 08:26:59;;;;;;;2.23;2.10;;;21.30;39.60;;;;;;20642;6870;117530;31
2023/09/25 08:29:25;;;;;;;2.90;2.70;;;21.30;39.70;;;;;;20432;6870;278256;31
2023/09/25 08:31:51;;;;;;;3.43;2.50;;;21.60;39.00;;;;;;20639;6870;118243;31
2023/09/25 08:34:17;;;;;;;2.70;2.50;;;21.70;39.10;;;;;;20636;6870;117046;31
2023/09/25 08:36:43;;;;;;;2.87;2.67;;;21.70;38.90;;;;;;20406;6870;309781;31
2023/09/25 08:39:11;;;;;;;2.90;2.70;;;21.90;37.70;;;;;;20640;6870;117230;31
2023/09/25 08:41:34;;;;;;;2.70;2.50;;;22.00;37.70;;;;;;20631;6870;120053;31
2023/09/25 08:43:59;;;;;;;2.97;2.40;;;21.90;37.40;;;;;;20430;6870;278369;31
2023/09/25 08:46:25;;;;;;;2.47;2.37;;;22.10;36.20;;;;;;20614;6870;123864;31
2023/09/25 08:48:56;;;;;;;3.60;2.80;;;22.10;36.30;;;;;;20430;6868;308079;31
2023/09/25 08:51:16;;;;;;;2.50;2.30;;;22.20;35.80;;;;;;20626;6869;117527;31
2023/09/25 08:53:43;;;;;;;2.60;2.50;;;22.30;36.20;;;;;;20643;6870;117451;31
2023/09/25 08:56:12;;;;;;;2.53;2.42;;;22.10;36.50;;;;;;20436;6870;337879;31
2023/09/25 08:58:34;;;;;;;2.53;2.33;;;22.30;36.00;;;;;;20610;6870;118259;31
2023/09/25 09:00:59;;;;;;;2.90;2.70;;;22.30;36.30;;;;;;20651;6870;121110;31
2023/09/25 09:03:28;;;;;;;3.10;2.77;;;22.20;36.30;;;;;;20651;6870;117262;31
2023/09/25 09:05:54;;;;;;;2.70;2.50;;;22.20;36.60;;;;;;20433;6870;309645;31
2023/09/25 09:08:19;;;;;;;2.92;2.72;;;22.50;35.50;;;;;;20441;6870;300338;31
2023/09/25 09:10:45;;;;;;;3.10;2.47;;;22.90;34.90;;;;;;20619;6870;117896;31
2023/09/25 09:13:12;;;;;;;2.90;2.70;;;23.00;35.30;;;;;;20439;6870;300807;31
2023/09/25 09:15:38;;;;;;;2.80;2.60;;;23.10;35.40;;;;;;20434;6870;315029;31
2023/09/25 09:18:20;;;;;;;2.95;2.75;;;23.50;35.30;;;;;;20429;6870;279277;31
2023/09/25 09:20:45;;;;;;;2.80;2.57;;;23.80;34.30;;;;;;20622;6870;117749;31
2023/09/25 09:23:10;;;;;;;3.10;2.80;;;23.60;34.80;;;;;;20434;6870;285000;31
2023/09/25 09:25:36;;;;;;;2.80;2.60;;;23.70;34.50;;;;;;20430;6870;282753;31
2023/09/25 09:28:06;;;;;;;2.78;2.58;;;23.90;35.00;;;;;;20426;6870;337947;31
2023/09/25 09:30:30;;;;;;;2.57;2.37;;;24.20;34.20;;;;;;20624;6870;118252;31
2023/09/25 09:32:57;;;;;;;2.90;2.60;;;24.10;34.50;;;;;;20644;6870;117173;31
2023/09/25 09:35:24;;;;;;;2.40;2.30;;;23.90;34.80;;;;;;20636;6870;118252;31
2023/09/25 09:37:48;;;;;;;2.40;2.30;;;23.80;34.90;;;;;;20630;6870;117111;31
2023/09/25 09:40:13;;;;;;;3.20;2.90;;;23.60;35.10;;;;;;20425;6870;309008;31
2023/09/25 09:42:38;;;;;;;3.03;2.83;;;23.70;34.40;;;;;;20406;6870;309127;31
2023/09/25 09:45:07;;;;;;;3.00;2.80;;;24.00;34.40;;;;;;20421;6870;311403;31
2023/09/25 09:47:30;;;;;;;2.77;2.57;;;24.30;33.70;;;;;;20634;6870;117103;31
2023/09/25 09:49:57;;;;;;;2.90;2.70;;;24.30;33.80;;;;;;20425;6870;337116;31
2023/09/25 09:52:23;;;;;;;3.13;2.83;;;24.30;33.30;;;;;;20639;6870;117436;31
2023/09/25 09:54:48;;;;;;;2.77;2.57;;;24.20;33.70;;;;;;20620;6870;118520;31
2023/09/25 09:57:14;;;;;;;3.73;2.90;;;24.00;33.90;;;;;;20419;6870;310398;31
2023/09/25 09:59:40;;;;;;;3.00;2.80;;;24.20;33.60;;;;;;20426;6870;311519;31
2023/09/25 10:02:05;;;;;;;3.00;2.70;;;24.50;32.90;;;;;;20642;6868;117046;31
2023/09/25 10:04:30;;;;;;;2.87;2.67;;;24.40;33.40;;;;;;20403;6870;308083;31
2023/09/25 10:06:59;;;;;;;4.37;2.40;;;24.50;33.00;;;;;;20642;6870;117693;31
2023/09/25 10:09:25;;;;;;;3.03;2.50;;;24.50;33.50;;;;;;20638;6870;116920;31
2023/09/25 10:11:50;;;;;;;2.47;2.30;;;24.40;34.20;;;;;;20638;6870;118706;31
2023/09/25 10:14:19;;;;;;;2.70;2.50;;;24.30;34.50;;;;;;20427;6870;308809;31
2023/09/25 10:16:59;;;;;;;2.67;2.47;;;24.50;33.70;;;;;;20619;6870;118270;31
2023/09/25 10:19:41;;;;;;;2.10;2.00;;;24.60;33.70;;;;;;20640;6870;117083;31
2023/09/25 10:22:16;;;;;;;2.50;2.30;;;24.50;33.70;;;;;;20638;6870;120905;31
2023/09/25 10:24:42;;;;;;;2.63;2.43;;;24.30;33.70;;;;;;20406;6870;291469;31
2023/09/25 10:27:07;;;;;;;2.90;2.60;;;24.60;32.50;;;;;;20427;6870;281206;31
2023/09/25 10:29:33;;;;;;;3.20;2.47;;;25.00;33.50;;;;;;20426;6870;327742;31
2023/09/25 10:31:58;;;;;;;2.77;2.50;;;25.20;32.30;;;;;;20426;6870;311051;31
2023/09/25 10:34:29;;;;;;;2.70;2.50;;;25.40;31.60;;;;;;20618;6870;118389;31
2023/09/25 10:36:52;;;;;;;4.43;2.27;;;25.30;32.00;;;;;;20609;6870;117242;31
2023/09/25 10:39:18;;;;;;;2.70;2.50;;;25.00;32.50;;;;;;20630;6870;117366;31
2023/09/25 10:41:47;;;;;;;2.27;2.00;;;24.80;32.90;;;;;;20620;6870;118590;31
2023/09/25 10:44:12;;;;;;;1.90;1.80;;;24.60;33.20;;;;;;20642;6870;117101;31
2023/09/25 10:46:38;;;;;;;2.50;2.30;;;24.50;33.60;;;;;;20400;6870;281826;31
2023/09/25 10:49:03;;;;;;;2.57;2.37;;;24.60;33.30;;;;;;20439;6870;303667;31
2023/09/25 10:51:29;;;;;;;2.60;2.40;;;25.00;33.00;;;;;;20427;6870;277885;31
2023/09/25 10:53:54;;;;;;;2.47;2.27;;;25.40;32.40;;;;;;20402;6870;286807;31
2023/09/25 10:56:20;;;;;;;2.27;2.17;;;25.60;31.70;;;;;;20628;6870;117383;31
2023/09/25 10:58:47;;;;;;;2.55;2.35;;;25.50;31.70;;;;;;20409;6870;279086;31
2023/09/25 11:01:11;;;;;;;2.80;2.60;;;25.50;32.30;;;;;;20641;6870;117014;31
2023/09/25 11:03:39;;;;;;;3.33;2.50;;;25.40;32.50;;;;;;20640;6870;117049;31
2023/09/25 11:06:04;;;;;;;3.00;2.20;;;25.20;32.70;;;;;;20424;6870;308200;31
2023/09/25 11:08:29;;;;;;;2.77;2.40;;;25.40;32.20;;;;;;20413;6870;279104;31
2023/09/25 11:10:56;;;;;;;2.40;2.30;;;25.50;32.20;;;;;;20418;6870;279184;31
2023/09/25 11:13:23;;;;;;;2.20;2.10;;;25.70;31.40;;;;;;20429;6868;308432;31
2023/09/25 11:15:48;;;;;;;3.67;2.00;;;25.90;31.50;;;;;;20638;6870;122689;31
2023/09/25 11:18:14;;;;;;;2.00;1.90;;;25.80;31.60;;;;;;20632;6870;122881;31
2023/09/25 11:20:41;;;;;;;2.43;2.30;;;25.50;31.90;;;;;;20411;6870;303975;31
2023/09/25 11:23:05;;;;;;;2.40;2.30;;;25.50;30.90;;;;;;20409;6870;314368;31
2023/09/25 11:25:37;;;;;;;2.23;2.00;;;25.70;31.30;;;;;;20622;6870;117159;31
2023/09/25 11:28:04;;;;;;;2.17;1.83;;;25.70;31.30;;;;;;20622;6870;116846;31
2023/09/25 11:30:29;;;;;;;2.45;2.20;;;25.50;31.20;;;;;;20581;6870;120918;31
2023/09/25 11:32:54;;;;;;;2.10;1.90;;;25.20;31.50;;;;;;20622;6870;119238;31
2023/09/25 11:35:20;;;;;;;2.20;2.00;;;25.00;31.90;;;;;;20626;6870;117057;31
2023/09/25 11:38:02;;;;;;;2.80;2.10;;;24.90;32.10;;;;;;20420;6870;308327;31
2023/09/25 11:40:27;;;;;;;2.10;2.00;;;25.00;30.90;;;;;;20610;6870;126904;31
2023/09/25 11:42:53;;;;;;;2.33;2.20;;;24.80;31.10;;;;;;20422;6870;282582;31
2023/09/25 11:45:18;;;;;;;2.97;2.67;;;24.90;31.70;;;;;;20410;6870;316147;31
2023/09/25 11:47:44;;;;;;;2.50;2.30;;;25.20;31.10;;;;;;20417;6870;309330;31
2023/09/25 11:50:13;;;;;;;2.30;2.10;;;25.40;30.70;;;;;;20626;6870;122571;31
2023/09/25 11:52:37;;;;;;;2.27;2.13;;;25.30;31.00;;;;;;20387;6870;293417;31
2023/09/25 11:55:04;;;;;;;3.50;2.00;;;25.30;31.10;;;;;;20408;6870;308992;31
2023/09/25 11:57:34;;;;;;;2.20;2.10;;;25.60;31.30;;;;;;20417;6870;308557;31
2023/09/25 11:59:59;;;;;;;2.30;2.10;;;25.70;30.60;;;;;;20674;6870;66766;31
2023/09/25 12:02:28;;;;;;;3.35;2.53;;;25.60;30.80;;;;;;20626;6870;119276;31
2023/09/25 12:04:54;;;;;;;2.37;2.17;;;25.30;31.30;;;;;;20634;6870;118498;31
2023/09/25 12:07:20;;;;;;;2.50;2.30;;;25.10;31.60;;;;;;20430;6870;307254;31
2023/09/25 12:09:45;;;;;;;2.50;2.30;;;25.10;31.20;;;;;;20427;6870;338224;31
2023/09/25 12:12:11;;;;;;;2.60;2.40;;;25.40;30.90;;;;;;20440;6870;313588;31
2023/09/25 12:14:36;;;;;;;2.00;1.87;;;25.50;30.30;;;;;;20638;6870;117301;31
2023/09/25 12:17:02;;;;;;;2.40;2.20;;;25.40;30.80;;;;;;20446;6870;307959;31
2023/09/25 12:19:27;;;;;;;2.28;2.15;;;25.40;31.20;;;;;;20454;6870;336577;31
2023/09/25 12:21:53;;;;;;;2.17;1.93;;;25.60;30.80;;;;;;20658;6870;116268;31
2023/09/25 12:24:19;;;;;;;2.33;2.13;;;25.60;31.00;;;;;;20664;6868;118806;31
2023/09/25 12:26:44;;;;;;;2.43;2.10;;;25.30;31.30;;;;;;20434;6870;283053;31
2023/09/25 12:29:10;;;;;;;2.20;2.00;;;25.30;31.80;;;;;;20439;6870;310545;31
2023/09/25 12:31:35;;;;;;;3.73;2.10;;;25.60;32.30;;;;;;20661;6870;121950;31
2023/09/25 12:34:01;;;;;;;2.30;2.10;;;25.50;31.90;;;;;;20659;6870;117929;31
2023/09/25 12:36:27;;;;;;;2.22;2.10;;;25.40;31.50;;;;;;20429;6870;278858;31
2023/09/25 12:38:52;;;;;;;2.93;1.90;;;25.30;30.30;;;;;;20658;6870;117688;31
2023/09/25 12:41:18;;;;;;;2.33;2.20;;;25.20;30.80;;;;;;20458;6870;278646;31